Time;durP1;ratioP1;P1;durP2;ratioP2;P2;SDS_P1;SDS_P2;PMS_P1;PMS_P2;Temp;Humidity;BMP_temperature;BMP_pressure;BME280_temperature;BME280_humidity;BME280_pressure;Samples;Min_cycle;Max_cycle;Signal;HPM_P1;HPM_P2
2022/03/04 00:01:53;;;;;;;;;;;;;;;19.86;46.42;100726.84;4425252;32;19966;-73
2022/03/04 00:04:18;;;;;;;;;;;;;;;19.89;46.40;100725.84;4427379;32;20429;-72
2022/03/04 00:06:43;;;;;;;;;;;;;;;19.85;46.27;100728.16;4424811;32;20379;-73
2022/03/04 00:09:09;;;;;;;;;;;;;;;19.78;45.95;100729.38;4425348;32;20009;-73
2022/03/04 00:11:34;;;;;;;;;;;;;;;19.82;46.36;100732.78;4424128;32;20260;-72
2022/03/04 00:14:00;;;;;;;;;;;;;;;19.70;46.23;100733.97;4418251;32;20367;-72
2022/03/04 00:16:26;;;;;;;;;;;;;;;19.64;46.38;100724.53;4416220;32;19988;-72
2022/03/04 00:19:06;;;;;;;;;;;;;;;19.71;46.29;100719.19;4413145;32;20045;-72
2022/03/04 00:21:34;;;;;;;;;;;;;;;19.63;46.72;100720.09;4414731;32;20431;-72
2022/03/04 00:24:00;;;;;;;;;;;;;;;19.74;46.53;100720.25;4416501;32;19999;-72
2022/03/04 00:26:25;;;;;;;;;;;;;;;19.75;46.51;100719.75;4417749;32;20373;-72
2022/03/04 00:28:51;;;;;;;;;;;;;;;19.85;46.63;100719.59;4415990;32;20053;-72
2022/03/04 00:31:18;;;;;;;;;;;;;;;19.80;46.20;100721.09;4414166;32;20237;-71
2022/03/04 00:33:43;;;;;;;;;;;;;;;19.63;46.60;100718.03;4417602;32;20005;-70
2022/03/04 00:36:09;;;;;;;;;;;;;;;19.66;46.73;100724.81;4420876;32;19949;-72
2022/03/04 00:38:34;;;;;;;;;;;;;;;19.63;47.06;100723.75;4416307;32;19957;-73
2022/03/04 00:41:00;;;;;;;;;;;;;;;19.68;46.92;100730.81;4414379;32;20007;-72
2022/03/04 00:43:25;;;;;;;;;;;;;;;19.68;47.18;100728.75;4401813;32;20119;-73
2022/03/04 00:45:51;;;;;;;;;;;;;;;19.66;46.91;100728.47;4419170;32;19954;-73
2022/03/04 00:48:17;;;;;;;;;;;;;;;19.58;46.74;100724.47;4416505;32;20355;-73
2022/03/04 00:50:42;;;;;;;;;;;;;;;19.63;46.88;100734.38;4414347;32;20003;-73
2022/03/04 00:53:08;;;;;;;;;;;;;;;19.78;46.85;100726.50;4413857;32;20500;-73
2022/03/04 00:55:36;;;;;;;;;;;;;;;19.83;46.72;100725.78;4400679;32;20052;-73
2022/03/04 00:58:02;;;;;;;;;;;;;;;19.76;46.52;100731.97;4415130;32;20008;-72
2022/03/04 01:00:27;;;;;;;;;;;;;;;19.88;46.69;100732.84;4412037;32;20088;-73
2022/03/04 01:02:53;;;;;;;;;;;;;;;19.93;46.60;100732.91;4416382;32;19964;-72
2022/03/04 01:05:19;;;;;;;;;;;;;;;19.96;46.61;100736.81;4418286;32;19961;-70
2022/03/04 01:07:44;;;;;;;;;;;;;;;19.86;46.41;100736.22;4413578;32;19969;-71
2022/03/04 01:10:10;;;;;;;;;;;;;;;19.70;46.36;100742.53;4414113;32;19953;-71
2022/03/04 01:12:37;;;;;;;;;;;;;;;19.18;46.46;100735.09;4414065;32;20436;-71
2022/03/04 01:15:03;;;;;;;;;;;;;;;19.39;46.06;100731.00;4402281;32;20012;-71
2022/03/04 01:17:29;;;;;;;;;;;;;;;19.43;45.95;100740.12;4414454;32;20332;-72
2022/03/04 01:19:54;;;;;;;;;;;;;;;19.12;46.38;100734.97;4415794;32;19985;-73
2022/03/04 01:22:20;;;;;;;;;;;;;;;19.17;46.18;100739.19;4413800;32;19968;-71
2022/03/04 01:24:46;;;;;;;;;;;;;;;19.24;45.87;100742.41;4415139;32;19997;-73
2022/03/04 01:27:12;;;;;;;;;;;;;;;19.26;46.14;100737.03;4413278;32;20012;-73
2022/03/04 01:29:37;;;;;;;;;;;;;;;19.14;45.90;100738.13;4413128;32;20013;-71
2022/03/04 01:32:03;;;;;;;;;;;;;;;19.25;46.34;100740.34;4414624;32;19998;-73
2022/03/04 01:34:29;;;;;;;;;;;;;;;19.20;46.29;100730.44;4413977;32;20319;-73
2022/03/04 01:36:55;;;;;;;;;;;;;;;19.25;46.17;100734.66;4412777;32;20017;-73
2022/03/04 01:39:21;;;;;;;;;;;;;;;19.25;46.77;100735.44;4415679;32;20067;-71
2022/03/04 01:41:46;;;;;;;;;;;;;;;19.26;46.66;100733.34;4416672;32;19958;-73
2022/03/04 01:44:12;;;;;;;;;;;;;;;19.35;46.59;100736.91;4416474;32;19968;-73
2022/03/04 01:46:38;;;;;;;;;;;;;;;19.16;46.47;100741.28;4414654;32;19972;-72
2022/03/04 01:49:03;;;;;;;;;;;;;;;18.57;45.13;100737.03;4414192;32;19997;-72
2022/03/04 01:51:29;;;;;;;;;;;;;;;18.25;46.17;100737.22;4412545;32;20275;-72
2022/03/04 01:53:54;;;;;;;;;;;;;;;18.54;46.58;100748.63;4414339;32;20369;-72
2022/03/04 01:56:21;;;;;;;;;;;;;;;18.48;45.96;100742.03;4417638;32;21477;-72
2022/03/04 01:58:47;;;;;;;;;;;;;;;18.49;46.18;100740.75;4417832;32;19965;-72
2022/03/04 02:01:13;;;;;;;;;;;;;;;18.54;46.40;100748.63;4411232;32;20352;-72
2022/03/04 02:03:39;;;;;;;;;;;;;;;18.54;45.61;100752.25;4411599;32;19969;-72
2022/03/04 02:06:04;;;;;;;;;;;;;;;18.33;45.83;100759.13;4416236;32;20539;-71
2022/03/04 02:08:30;;;;;;;;;;;;;;;18.38;44.72;100758.44;4412799;32;20682;-71
2022/03/04 02:10:55;;;;;;;;;;;;;;;18.15;44.59;100759.31;4414650;32;19949;-71
2022/03/04 02:13:21;;;;;;;;;;;;;;;18.02;44.71;100760.88;4412478;32;19973;-71
2022/03/04 02:15:47;;;;;;;;;;;;;;;18.11;44.60;100753.03;4415679;32;20005;-71
2022/03/04 02:18:13;;;;;;;;;;;;;;;18.12;44.83;100762.34;4414252;32;19949;-72
2022/03/04 02:20:41;;;;;;;;;;;;;;;17.88;44.96;100760.38;4415886;32;19983;-73
2022/03/04 02:23:07;;;;;;;;;;;;;;;17.61;44.80;100751.25;4399931;32;20003;-73
2022/03/04 02:25:33;;;;;;;;;;;;;;;17.61;45.33;100762.63;4412191;32;19987;-73
2022/03/04 02:27:58;;;;;;;;;;;;;;;17.75;44.83;100759.84;4414634;32;20012;-73
2022/03/04 02:30:23;;;;;;;;;;;;;;;17.72;45.41;100752.28;4413416;32;20009;-73
2022/03/04 02:32:49;;;;;;;;;;;;;;;17.82;44.95;100753.78;4416716;32;20552;-74
2022/03/04 02:35:14;;;;;;;;;;;;;;;17.66;45.19;100764.81;4415790;32;19992;-74
2022/03/04 02:37:40;;;;;;;;;;;;;;;17.70;44.96;100766.22;4415062;32;19997;-74
2022/03/04 02:40:06;;;;;;;;;;;;;;;17.54;45.48;100766.66;4411209;32;19989;-73
2022/03/04 02:42:31;;;;;;;;;;;;;;;17.50;45.39;100763.22;4414455;32;20023;-72
2022/03/04 02:44:57;;;;;;;;;;;;;;;17.56;45.51;100769.03;4416125;32;19957;-72
2022/03/04 02:47:22;;;;;;;;;;;;;;;17.61;45.81;100774.81;4415398;32;19945;-72
2022/03/04 02:49:48;;;;;;;;;;;;;;;17.61;45.05;100765.47;4415110;32;19981;-72
2022/03/04 02:52:13;;;;;;;;;;;;;;;17.77;45.29;100765.81;4412987;32;19972;-72
2022/03/04 02:54:39;;;;;;;;;;;;;;;17.70;44.85;100757.66;4414503;32;19954;-72
2022/03/04 02:57:05;;;;;;;;;;;;;;;17.78;45.19;100763.78;4413405;32;20420;-72
2022/03/04 02:59:30;;;;;;;;;;;;;;;17.74;44.47;100766.03;4411146;32;20001;-71
2022/03/04 03:01:55;;;;;;;;;;;;;;;17.79;44.69;100765.34;4415226;32;19977;-71
2022/03/04 03:04:21;;;;;;;;;;;;;;;17.74;45.44;100760.34;4418409;32;20116;-73
2022/03/04 03:06:46;;;;;;;;;;;;;;;17.85;45.31;100755.66;4415376;32;20004;-73
2022/03/04 03:09:12;;;;;;;;;;;;;;;17.94;45.24;100756.84;4415544;32;20092;-73
2022/03/04 03:11:38;;;;;;;;;;;;;;;17.87;44.39;100766.53;4412691;32;20001;-73
2022/03/04 03:14:04;;;;;;;;;;;;;;;17.84;44.92;100768.31;4417985;32;20567;-72
2022/03/04 03:16:29;;;;;;;;;;;;;;;17.69;44.88;100773.19;4414593;32;19989;-72
2022/03/04 03:18:56;;;;;;;;;;;;;;;17.64;44.75;100771.00;4414115;32;20234;-72
2022/03/04 03:21:21;;;;;;;;;;;;;;;17.66;44.90;100768.47;4413911;32;19950;-72
2022/03/04 03:23:47;;;;;;;;;;;;;;;17.71;45.31;100764.94;4415111;32;20405;-71
2022/03/04 03:26:13;;;;;;;;;;;;;;;17.66;44.80;100767.66;4414979;32;20346;-71
2022/03/04 03:28:38;;;;;;;;;;;;;;;17.69;45.69;100766.69;4413167;32;20199;-71
2022/03/04 03:31:04;;;;;;;;;;;;;;;17.79;45.29;100774.69;4397431;32;19961;-71
2022/03/04 03:33:31;;;;;;;;;;;;;;;17.81;45.18;100772.13;4417801;32;19993;-71
2022/03/04 03:35:57;;;;;;;;;;;;;;;17.58;44.98;100777.88;4415370;32;20011;-73
2022/03/04 03:38:23;;;;;;;;;;;;;;;17.61;45.25;100771.19;4414174;32;19957;-71
2022/03/04 03:40:49;;;;;;;;;;;;;;;17.78;44.58;100775.16;4412340;32;19961;-72
2022/03/04 03:43:14;;;;;;;;;;;;;;;17.62;45.29;100787.00;4401760;32;19971;-71
2022/03/04 03:45:40;;;;;;;;;;;;;;;17.65;45.34;100781.09;4413835;32;20025;-72
2022/03/04 03:48:05;;;;;;;;;;;;;;;17.67;44.44;100784.25;4415532;32;20034;-72
2022/03/04 03:50:31;;;;;;;;;;;;;;;17.80;44.07;100784.00;4414208;32;21004;-72
2022/03/04 03:52:56;;;;;;;;;;;;;;;17.83;44.44;100780.19;4416254;32;20020;-73
2022/03/04 03:55:22;;;;;;;;;;;;;;;17.76;43.62;100786.25;4416790;32;20105;-73
2022/03/04 03:57:47;;;;;;;;;;;;;;;17.97;44.15;100782.25;4415484;32;19965;-72
2022/03/04 04:00:13;;;;;;;;;;;;;;;17.74;44.53;100791.66;4411862;32;19963;-72
2022/03/04 04:02:39;;;;;;;;;;;;;;;17.77;44.73;100787.84;4416287;32;19997;-72
2022/03/04 04:05:05;;;;;;;;;;;;;;;17.84;44.44;100781.75;4417334;32;19958;-73
2022/03/04 04:07:31;;;;;;;;;;;;;;;17.51;44.72;100783.91;4415653;32;19961;-72
2022/03/04 04:09:56;;;;;;;;;;;;;;;17.55;44.33;100787.38;4413336;32;20012;-71
2022/03/04 04:12:22;;;;;;;;;;;;;;;17.44;44.68;100793.63;4416207;32;19950;-71
2022/03/04 04:14:48;;;;;;;;;;;;;;;17.45;44.31;100788.69;4418905;32;20128;-71
2022/03/04 04:17:13;;;;;;;;;;;;;;;17.18;44.83;100795.31;4416467;32;19976;-71
2022/03/04 04:19:38;;;;;;;;;;;;;;;17.32;44.05;100797.44;4418464;32;19989;-71
2022/03/04 04:22:04;;;;;;;;;;;;;;;17.20;44.08;100800.50;4414623;32;19991;-72
2022/03/04 04:24:29;;;;;;;;;;;;;;;17.41;43.93;100800.25;4414285;32;19997;-73
2022/03/04 04:26:55;;;;;;;;;;;;;;;17.40;44.47;100809.25;4413580;32;19968;-74
2022/03/04 04:29:21;;;;;;;;;;;;;;;17.21;44.35;100810.66;4415160;32;20555;-74
2022/03/04 04:31:47;;;;;;;;;;;;;;;17.01;44.58;100816.91;4415440;32;20001;-74
2022/03/04 04:34:13;;;;;;;;;;;;;;;16.83;44.44;100813.34;4419329;32;19976;-73
2022/03/04 04:36:38;;;;;;;;;;;;;;;16.57;44.99;100809.34;4418836;32;20280;-73
2022/03/04 04:39:04;;;;;;;;;;;;;;;16.36;44.89;100813.13;4402626;32;19957;-73
2022/03/04 04:41:30;;;;;;;;;;;;;;;16.49;44.89;100813.75;4414735;32;19966;-73
2022/03/04 04:43:55;;;;;;;;;;;;;;;16.37;45.21;100820.37;4415898;32;19965;-72
2022/03/04 04:46:21;;;;;;;;;;;;;;;16.48;45.32;100818.69;4416823;32;20005;-72
2022/03/04 04:48:46;;;;;;;;;;;;;;;16.17;45.23;100814.44;4415282;32;20407;-72
2022/03/04 04:51:12;;;;;;;;;;;;;;;16.19;45.48;100812.69;4416995;32;19950;-72
2022/03/04 04:53:38;;;;;;;;;;;;;;;16.70;45.24;100818.44;4416164;32;20357;-72
2022/03/04 04:56:04;;;;;;;;;;;;;;;16.87;44.74;100828.16;4404276;32;20037;-72
2022/03/04 04:58:31;;;;;;;;;;;;;;;16.66;44.52;100820.66;4416758;32;19961;-72
2022/03/04 05:00:57;;;;;;;;;;;;;;;16.61;44.95;100832.69;4415784;32;19975;-72
2022/03/04 05:03:23;;;;;;;;;;;;;;;16.89;45.19;100834.16;4418197;32;19997;-70
2022/03/04 05:05:49;;;;;;;;;;;;;;;16.96;44.75;100836.66;4417665;32;20000;-73
2022/03/04 05:08:15;;;;;;;;;;;;;;;17.02;43.96;100829.03;4415741;32;20339;-73
2022/03/04 05:10:41;;;;;;;;;;;;;;;16.95;44.64;100838.72;4416582;32;20031;-73
2022/03/04 05:13:07;;;;;;;;;;;;;;;16.85;44.87;100840.03;4415379;32;19965;-73
2022/03/04 05:15:33;;;;;;;;;;;;;;;17.04;44.50;100844.38;4415774;32;20000;-72
2022/03/04 05:17:59;;;;;;;;;;;;;;;17.22;44.54;100854.88;4417250;32;19977;-72
2022/03/04 05:20:24;;;;;;;;;;;;;;;16.96;44.56;100840.28;4414057;32;19954;-71
2022/03/04 05:22:50;;;;;;;;;;;;;;;17.03;44.30;100857.00;4416716;32;21005;-74
2022/03/04 05:25:16;;;;;;;;;;;;;;;17.20;44.41;100863.09;4415303;32;20389;-73
2022/03/04 05:27:41;;;;;;;;;;;;;;;17.08;44.41;100862.03;4415266;32;20001;-73
2022/03/04 05:30:07;;;;;;;;;;;;;;;16.97;44.43;100858.91;4416986;32;19954;-72
2022/03/04 05:32:33;;;;;;;;;;;;;;;16.88;44.34;100872.38;4413249;32;19975;-72
2022/03/04 05:34:58;;;;;;;;;;;;;;;16.92;43.80;100864.47;4414284;32;19965;-72
2022/03/04 05:37:24;;;;;;;;;;;;;;;16.88;44.91;100881.69;4414861;32;20001;-72
2022/03/04 05:39:49;;;;;;;;;;;;;;;16.98;44.58;100868.25;4412467;32;19972;-72
2022/03/04 05:42:15;;;;;;;;;;;;;;;17.11;44.63;100875.28;4399748;32;20335;-72
2022/03/04 05:44:41;;;;;;;;;;;;;;;17.05;44.81;100877.22;4416024;32;20358;-72
2022/03/04 05:47:06;;;;;;;;;;;;;;;17.19;44.75;100879.38;4412835;32;20009;-72
2022/03/04 05:49:32;;;;;;;;;;;;;;;17.13;44.54;100881.31;4414469;32;20340;-72
2022/03/04 05:51:57;;;;;;;;;;;;;;;17.34;44.52;100876.63;4415480;32;20043;-71
2022/03/04 05:54:24;;;;;;;;;;;;;;;17.30;44.16;100887.38;4412942;32;20001;-71
2022/03/04 05:56:50;;;;;;;;;;;;;;;17.30;44.41;100882.47;4415394;32;20001;-73
2022/03/04 05:59:15;;;;;;;;;;;;;;;17.15;44.40;100884.44;4418048;32;19995;-73
2022/03/04 06:01:41;;;;;;;;;;;;;;;17.17;43.88;100892.47;4413621;32;19957;-72
2022/03/04 06:04:07;;;;;;;;;;;;;;;17.04;44.29;100891.91;4415761;32;19968;-72
2022/03/04 06:06:33;;;;;;;;;;;;;;;16.98;44.39;100890.97;4414442;32;20336;-72
2022/03/04 06:08:58;;;;;;;;;;;;;;;17.10;44.47;100899.31;4414835;32;20407;-71
2022/03/04 06:11:25;;;;;;;;;;;;;;;16.92;44.31;100902.22;4413930;32;20008;-71
2022/03/04 06:13:50;;;;;;;;;;;;;;;16.91;44.09;100902.69;4413236;32;19961;-71
2022/03/04 06:16:16;;;;;;;;;;;;;;;16.88;44.29;100912.94;4414327;32;20467;-71
2022/03/04 06:18:42;;;;;;;;;;;;;;;16.91;44.74;100914.06;4411942;32;20407;-71
2022/03/04 06:21:07;;;;;;;;;;;;;;;17.02;44.59;100914.34;4415823;32;19957;-71
2022/03/04 06:23:33;;;;;;;;;;;;;;;16.98;44.59;100908.84;4413493;32;19997;-71
2022/03/04 06:25:59;;;;;;;;;;;;;;;16.92;44.09;100909.94;4415245;32;20004;-71
2022/03/04 06:28:25;;;;;;;;;;;;;;;16.98;44.51;100919.41;4411913;32;19970;-71
2022/03/04 06:30:51;;;;;;;;;;;;;;;16.89;44.45;100910.91;4412703;32;19969;-70
2022/03/04 06:33:48;;;;;;;;;;;;;;;17.08;44.54;100921.75;4413180;32;19992;-72
2022/03/04 06:36:05;;;;;;;;;;;;;;;16.98;45.02;100922.25;4411692;32;19993;-72
2022/03/04 06:38:31;;;;;;;;;;;;;;;17.15;44.84;100927.09;4414992;32;20016;-72
2022/03/04 06:40:57;;;;;;;;;;;;;;;17.06;44.89;100929.97;4414530;32;19999;-71
2022/03/04 06:43:23;;;;;;;;;;;;;;;16.43;44.06;100926.41;4413577;32;19992;-71
2022/03/04 06:45:48;;;;;;;;;;;;;;;16.67;44.36;100928.19;4414880;32;20452;-71
2022/03/04 06:48:15;;;;;;;;;;;;;;;16.81;44.47;100935.25;4413286;32;19980;-71
2022/03/04 06:50:41;;;;;;;;;;;;;;;16.93;44.67;100931.41;4411875;32;20012;-71
2022/03/04 06:53:07;;;;;;;;;;;;;;;17.05;44.83;100945.47;4413825;32;19957;-71
2022/03/04 06:55:32;;;;;;;;;;;;;;;16.90;44.34;100938.06;4414421;32;20003;-71
2022/03/04 06:57:59;;;;;;;;;;;;;;;17.02;44.68;100940.72;4415144;32;19993;-72
2022/03/04 07:00:25;;;;;;;;;;;;;;;16.77;44.49;100946.78;4414538;32;20275;-73
2022/03/04 07:02:51;;;;;;;;;;;;;;;16.98;44.44;100951.50;4412713;32;20009;-72
2022/03/04 07:05:16;;;;;;;;;;;;;;;16.94;44.87;100956.53;4410846;32;19961;-72
2022/03/04 07:07:42;;;;;;;;;;;;;;;16.98;44.51;100948.66;4414017;32;19957;-72
2022/03/04 07:10:08;;;;;;;;;;;;;;;16.94;44.44;100955.75;4412417;32;19992;-71
2022/03/04 07:12:34;;;;;;;;;;;;;;;16.98;44.83;100960.00;4415820;32;20006;-71
2022/03/04 07:14:59;;;;;;;;;;;;;;;16.66;45.15;100966.38;4412914;32;20027;-71
2022/03/04 07:17:25;;;;;;;;;;;;;;;16.72;45.01;100963.69;4414060;32;19998;-72
2022/03/04 07:19:50;;;;;;;;;;;;;;;16.94;44.49;100967.12;4417870;32;19956;-73
2022/03/04 07:22:16;;;;;;;;;;;;;;;16.99;44.45;100972.16;4416797;32;20024;-74
2022/03/04 07:24:41;;;;;;;;;;;;;;;16.82;45.07;100971.75;4414962;32;20046;-73
2022/03/04 07:27:07;;;;;;;;;;;;;;;16.71;44.02;100974.25;4416861;32;20009;-74
2022/03/04 07:29:32;;;;;;;;;;;;;;;16.91;44.34;100976.63;4416319;32;19989;-74
2022/03/04 07:31:58;;;;;;;;;;;;;;;16.92;44.42;100986.72;4415485;32;19969;-70
2022/03/04 07:34:24;;;;;;;;;;;;;;;16.21;44.23;100983.38;4413669;32;19995;-72
2022/03/04 07:36:51;;;;;;;;;;;;;;;16.75;44.21;100989.09;4417431;32;20259;-72
2022/03/04 07:39:19;;;;;;;;;;;;;;;16.78;44.36;100991.00;4413093;32;20050;-73
2022/03/04 07:41:47;;;;;;;;;;;;;;;16.60;44.23;100999.53;4415424;32;20001;-74
2022/03/04 07:44:12;;;;;;;;;;;;;;;16.69;44.18;101007.28;4415925;32;20008;-74
2022/03/04 07:46:38;;;;;;;;;;;;;;;16.91;44.30;101007.88;4401285;32;19957;-73
2022/03/04 07:49:04;;;;;;;;;;;;;;;16.87;43.94;101004.41;4403655;32;19961;-73
2022/03/04 07:51:30;;;;;;;;;;;;;;;16.69;44.04;101008.03;4410787;32;20267;-74
2022/03/04 07:53:56;;;;;;;;;;;;;;;16.84;43.50;101008.22;4415407;32;19993;-73
2022/03/04 07:56:22;;;;;;;;;;;;;;;16.83;44.12;101000.94;4415525;32;19994;-73
2022/03/04 07:58:47;;;;;;;;;;;;;;;16.86;43.50;101012.16;4407824;32;20018;-72
2022/03/04 08:01:13;;;;;;;;;;;;;;;17.00;43.46;101008.62;4409276;32;20356;-73
2022/03/04 08:03:39;;;;;;;;;;;;;;;17.03;43.21;101007.69;4406998;32;20001;-73
2022/03/04 08:06:05;;;;;;;;;;;;;;;16.82;43.13;101017.22;4409430;32;20437;-73
2022/03/04 08:08:31;;;;;;;;;;;;;;;16.74;43.58;101018.78;4411397;32;20015;-73
2022/03/04 08:10:57;;;;;;;;;;;;;;;16.70;43.01;101025.91;4412985;32;20569;-73
2022/03/04 08:13:23;;;;;;;;;;;;;;;16.55;43.57;101030.63;4410536;32;20008;-73
2022/03/04 08:15:48;;;;;;;;;;;;;;;16.07;43.31;101031.47;4410846;32;20050;-73
2022/03/04 08:18:14;;;;;;;;;;;;;;;16.51;43.99;101025.09;4410990;32;20015;-73
2022/03/04 08:20:41;;;;;;;;;;;;;;;16.09;45.25;101032.59;4413597;32;20005;-71
2022/03/04 08:23:06;;;;;;;;;;;;;;;16.34;44.62;101038.00;4414897;32;20044;-71
2022/03/04 08:25:32;;;;;;;;;;;;;;;15.93;45.25;101036.47;4412792;32;20413;-72
2022/03/04 08:27:58;;;;;;;;;;;;;;;15.84;44.76;101035.66;4415217;32;20358;-73
2022/03/04 08:30:23;;;;;;;;;;;;;;;16.02;45.06;101042.16;4410561;32;19953;-73
2022/03/04 08:32:49;;;;;;;;;;;;;;;15.96;44.90;101049.72;4401241;32;20060;-73
2022/03/04 08:35:15;;;;;;;;;;;;;;;16.33;45.07;101052.66;4404555;32;20013;-73
2022/03/04 08:37:41;;;;;;;;;;;;;;;15.92;44.59;101046.25;4405970;32;20005;-73
2022/03/04 08:40:08;;;;;;;;;;;;;;;16.21;44.16;101056.41;4402566;32;20806;-73
2022/03/04 08:42:34;;;;;;;;;;;;;;;16.03;44.35;101060.00;4404442;32;20009;-74
2022/03/04 08:45:00;;;;;;;;;;;;;;;15.77;43.83;101067.94;4411151;32;19974;-73
2022/03/04 08:47:25;;;;;;;;;;;;;;;15.86;44.05;101061.50;4408145;32;20392;-74
2022/03/04 08:49:51;;;;;;;;;;;;;;;16.13;43.83;101066.50;4408940;32;20016;-72
2022/03/04 08:52:17;;;;;;;;;;;;;;;15.59;43.76;101067.84;4410074;32;20056;-73
2022/03/04 08:54:42;;;;;;;;;;;;;;;16.28;44.30;101073.97;4412284;32;20007;-72
2022/03/04 08:57:09;;;;;;;;;;;;;;;15.53;43.96;101083.91;4412999;32;19964;-74
2022/03/04 08:59:35;;;;;;;;;;;;;;;15.55;44.14;101081.41;4409846;32;20462;-73
2022/03/04 09:02:00;;;;;;;;;;;;;;;15.77;44.69;101078.50;4409688;32;19969;-73
2022/03/04 09:04:26;;;;;;;;;;;;;;;15.71;44.62;101083.22;4390664;32;20571;-73
2022/03/04 09:06:52;;;;;;;;;;;;;;;15.58;45.12;101079.66;4406971;32;21162;-73
2022/03/04 09:09:17;;;;;;;;;;;;;;;15.56;44.70;101073.69;4411953;32;20005;-73
2022/03/04 09:11:43;;;;;;;;;;;;;;;15.37;44.52;101086.19;4412393;32;20361;-73
2022/03/04 09:14:08;;;;;;;;;;;;;;;15.22;44.51;101083.03;4415113;32;20019;-73
2022/03/04 09:16:34;;;;;;;;;;;;;;;14.91;45.07;101092.75;4408494;32;20260;-73
2022/03/04 09:19:00;;;;;;;;;;;;;;;15.47;44.96;101087.81;4410404;32;19976;-73
2022/03/04 09:21:26;;;;;;;;;;;;;;;15.49;45.13;101083.25;4396246;32;20033;-73
2022/03/04 09:23:51;;;;;;;;;;;;;;;15.81;44.10;101084.84;4412162;32;20004;-73
2022/03/04 09:26:17;;;;;;;;;;;;;;;15.48;44.95;101084.50;4412946;32;20001;-73
2022/03/04 09:28:42;;;;;;;;;;;;;;;15.98;44.30;101091.84;4411752;32;20034;-73
2022/03/04 09:31:08;;;;;;;;;;;;;;;15.37;44.75;101084.13;4410953;32;20008;-73
2022/03/04 09:33:34;;;;;;;;;;;;;;;15.38;44.84;101093.44;4406238;32;20015;-71
2022/03/04 09:36:00;;;;;;;;;;;;;;;15.86;44.76;101095.56;4410517;32;20209;-72
2022/03/04 09:38:26;;;;;;;;;;;;;;;15.84;44.74;101100.94;4405840;32;20417;-71
2022/03/04 09:40:52;;;;;;;;;;;;;;;16.22;44.34;101092.88;4409118;32;20024;-72
2022/03/04 09:43:18;;;;;;;;;;;;;;;16.57;44.05;101093.47;4408055;32;19965;-72
2022/03/04 09:45:45;;;;;;;;;;;;;;;16.60;43.34;101101.03;4407084;32;19958;-72
2022/03/04 09:48:11;;;;;;;;;;;;;;;16.68;43.44;101099.47;4407661;32;19992;-71
2022/03/04 09:50:37;;;;;;;;;;;;;;;16.71;43.16;101096.47;4407803;32;20872;-72
2022/03/04 09:53:08;;;;;;;;;;;;;;;17.10;42.88;101101.22;4407429;32;19996;-71
2022/03/04 09:55:35;;;;;;;;;;;;;;;17.25;42.48;101101.37;4406341;32;20393;-71
2022/03/04 09:58:02;;;;;;;;;;;;;;;17.07;42.72;101104.22;4411086;32;19993;-71
2022/03/04 10:00:29;;;;;;;;;;;;;;;17.27;43.06;101102.47;4410306;32;19969;-71
2022/03/04 10:02:55;;;;;;;;;;;;;;;17.25;42.61;101102.13;4407230;32;20630;-72
2022/03/04 10:05:21;;;;;;;;;;;;;;;17.25;42.30;101110.66;4407281;32;20070;-72
2022/03/04 10:07:48;;;;;;;;;;;;;;;17.26;42.83;101106.59;4408708;32;19989;-73
2022/03/04 10:10:16;;;;;;;;;;;;;;;17.47;42.86;101113.38;4412638;32;20603;-71
2022/03/04 10:12:47;;;;;;;;;;;;;;;17.16;43.25;101113.56;4411263;32;20303;-72
2022/03/04 10:15:13;;;;;;;;;;;;;;;17.54;42.85;101107.34;4411334;32;19969;-71
2022/03/04 10:17:39;;;;;;;;;;;;;;;17.31;42.77;101111.63;4409501;32;20398;-72
2022/03/04 10:20:07;;;;;;;;;;;;;;;17.65;42.84;101114.09;4406687;32;19976;-72
2022/03/04 10:22:35;;;;;;;;;;;;;;;17.64;42.43;101115.37;4413961;32;20043;-72
2022/03/04 10:25:01;;;;;;;;;;;;;;;17.68;41.57;101118.84;4413939;32;19965;-72
2022/03/04 10:27:34;;;;;;;;;;;;;;;17.15;42.10;101120.47;4413223;32;19995;-72
2022/03/04 10:30:01;;;;;;;;;;;;;;;17.56;42.09;101130.44;4412375;32;20498;-73
2022/03/04 10:32:28;;;;;;;;;;;;;;;17.62;42.74;101125.69;4410969;32;20050;-73
2022/03/04 10:37:52;;;;;;;;;;;;;;;17.97;41.72;101141.06;3946764;32;15867176;-75
2022/03/04 10:40:19;;;;;;;;;;;;;;;17.97;41.72;101141.06;4430520;32;19996;-73
2022/03/04 10:42:47;;;;;;;;;;;;;;;17.56;42.23;101150.34;4429544;32;19985;-73
2022/03/04 10:45:14;;;;;;;;;;;;;;;17.02;42.58;101139.75;4429676;32;20103;-72
2022/03/04 10:50:17;;;;;;;;;;;;;;;17.06;nan;101148.91;3961635;31;15722612;-72
2022/03/04 10:52:51;;;;;;;;;;;;;;;17.06;nan;101148.91;4433371;32;20016;-73
2022/03/04 10:55:25;;;;;;;;;;;;;;;17.20;43.09;101144.66;4430682;32;20367;-73
2022/03/04 10:57:51;;;;;;;;;;;;;;;16.95;42.39;101139.28;4434075;32;20057;-71
2022/03/04 11:00:23;;;;;;;;;;;;;;;17.19;43.13;101146.72;4431996;32;19966;-72
2022/03/04 11:02:48;;;;;;;;;;;;;;;16.67;42.77;101140.50;4435777;32;19989;-72
2022/03/04 11:05:14;;;;;;;;;;;;;;;16.90;42.91;101139.91;4433192;32;20356;-73
2022/03/04 11:07:42;;;;;;;;;;;;;;;16.85;43.02;101141.34;4433301;32;20640;-72
2022/03/04 11:10:08;;;;;;;;;;;;;;;16.43;44.06;101146.00;4431894;32;20420;-72
2022/03/04 11:12:34;;;;;;;;;;;;;;;17.10;43.76;101143.88;4431445;32;20287;-73
2022/03/04 11:15:00;;;;;;;;;;;;;;;17.39;43.52;101146.22;4431599;32;20085;-72
2022/03/04 11:17:26;;;;;;;;;;;;;;;17.61;42.02;101150.50;4433288;32;19958;-72
2022/03/04 11:19:52;;;;;;;;;;;;;;;17.51;42.29;101146.09;4427597;32;20637;-72
2022/03/04 11:22:18;;;;;;;;;;;;;;;17.77;42.22;101150.12;4427150;32;19963;-72
2022/03/04 11:24:43;;;;;;;;;;;;;;;18.02;42.91;101151.03;4433023;32;20008;-72
2022/03/04 11:27:10;;;;;;;;;;;;;;;18.16;41.84;101144.66;4434583;32;20024;-72
2022/03/04 11:29:36;;;;;;;;;;;;;;;18.18;41.54;101148.59;4437040;32;20000;-72
2022/03/04 11:32:03;;;;;;;;;;;;;;;18.31;40.98;101148.38;4430720;32;20396;-72
2022/03/04 11:34:33;;;;;;;;;;;;;;;18.42;42.53;101142.97;4432368;32;20052;-72
2022/03/04 11:37:01;;;;;;;;;;;;;;;18.14;41.20;101141.47;4431679;32;20028;-73
2022/03/04 11:39:27;;;;;;;;;;;;;;;18.25;40.99;101141.75;4429246;32;19992;-72
2022/03/04 11:44:28;;;;;;;;;;;;;;;18.54;40.71;101144.81;3955527;32;15730488;-73
2022/03/04 11:54:45;;;;;;;;;;;;;;;18.70;41.72;101141.53;3948059;32;15722622;-71
2022/03/04 11:57:15;;;;;;;;;;;;;;;18.70;41.72;101141.53;4433514;32;19969;-71
2022/03/04 11:59:47;;;;;;;;;;;;;;;17.71;40.43;101132.13;4422402;32;20051;-72
2022/03/04 12:02:17;;;;;;;;;;;;;;;18.08;41.85;101132.81;4433505;32;19997;-71
2022/03/04 12:04:43;;;;;;;;;;;;;;;17.97;41.43;101126.81;4433556;32;21176;-71
2022/03/04 12:07:09;;;;;;;;;;;;;;;17.84;41.47;101123.41;4432470;32;20032;-71
2022/03/04 12:09:34;;;;;;;;;;;;;;;17.60;42.22;101122.50;4429799;32;20718;-71
2022/03/04 12:12:20;;;;;;;;;;;;;;;17.43;41.41;101127.75;4426625;32;19976;-72
2022/03/04 12:14:50;;;;;;;;;;;;;;;17.59;40.92;101138.81;4431464;32;20308;-72
2022/03/04 12:17:16;;;;;;;;;;;;;;;17.31;41.80;101137.22;4434416;32;19957;-71
2022/03/04 12:19:42;;;;;;;;;;;;;;;17.81;41.45;101136.53;4430219;32;20319;-72
2022/03/04 12:22:12;;;;;;;;;;;;;;;17.99;41.97;101140.59;4434585;32;20397;-72
2022/03/04 12:24:37;;;;;;;;;;;;;;;17.88;42.32;101141.91;4434478;32;19999;-72
2022/03/04 12:27:04;;;;;;;;;;;;;;;18.29;42.26;101140.31;4433422;32;20004;-71
2022/03/04 12:29:41;;;;;;;;;;;;;;;18.39;42.30;101138.22;4434433;32;20345;-72
2022/03/04 12:32:10;;;;;;;;;;;;;;;18.75;41.76;101138.03;4433664;32;19974;-72
2022/03/04 12:34:38;;;;;;;;;;;;;;;18.87;41.22;101134.12;4430812;32;20095;-72
2022/03/04 12:37:08;;;;;;;;;;;;;;;18.87;40.26;101134.12;4430088;32;20000;-72
2022/03/04 12:39:36;;;;;;;;;;;;;;;18.78;40.62;101140.66;4418314;32;19979;-72
2022/03/04 12:42:02;;;;;;;;;;;;;;;18.79;41.67;101138.63;4430493;32;20298;-72
2022/03/04 12:44:28;;;;;;;;;;;;;;;19.18;40.79;101143.84;4431270;32;19989;-72
2022/03/04 12:46:53;;;;;;;;;;;;;;;19.27;40.61;101138.09;4431215;32;19975;-73